sensor_id;sensor_type;location;lat;lon;timestamp;P1;durP1;ratioP1;P2;durP2;ratioP2
31238;SDS011;17871;31.584;74.450;2022-08-01T00:00:11;131.13;;;66.88;;
31238;SDS011;17871;31.584;74.450;2022-08-01T00:02:40;151.82;;;73.47;;
31238;SDS011;17871;31.584;74.450;2022-08-01T00:05:10;160.25;;;78.97;;
31238;SDS011;17871;31.584;74.450;2022-08-01T00:07:40;154.43;;;76.32;;
31238;SDS011;17871;31.584;74.450;2022-08-01T00:10:10;144.52;;;72.40;;
31238;SDS011;17871;31.584;74.450;2022-08-01T00:12:41;157.93;;;75.37;;
31238;SDS011;17871;31.584;74.450;2022-08-01T00:15:12;145.25;;;72.32;;
31238;SDS011;17871;31.584;74.450;2022-08-01T00:17:43;146.00;;;69.55;;
31238;SDS011;17871;31.584;74.450;2022-08-01T00:20:13;128.45;;;62.38;;
31238;SDS011;17871;31.584;74.450;2022-08-01T00:22:42;124.10;;;59.55;;
31238;SDS011;17871;31.584;74.450;2022-08-01T00:25:12;119.57;;;58.92;;
31238;SDS011;17871;31.584;74.450;2022-08-01T00:27:41;115.82;;;58.67;;
31238;SDS011;17871;31.584;74.450;2022-08-01T00:30:13;113.45;;;57.30;;
31238;SDS011;17871;31.584;74.450;2022-08-01T00:32:42;106.85;;;56.80;;
31238;SDS011;17871;31.584;74.450;2022-08-01T00:35:12;121.07;;;61.08;;
31238;SDS011;17871;31.584;74.450;2022-08-01T00:37:41;118.55;;;61.65;;
31238;SDS011;17871;31.584;74.450;2022-08-01T00:40:12;122.53;;;62.95;;
31238;SDS011;17871;31.584;74.450;2022-08-01T00:42:42;127.75;;;64.55;;
31238;SDS011;17871;31.584;74.450;2022-08-01T00:45:11;132.15;;;67.40;;
31238;SDS011;17871;31.584;74.450;2022-08-01T00:47:40;135.43;;;68.30;;
31238;SDS011;17871;31.584;74.450;2022-08-01T00:50:10;133.43;;;67.40;;
31238;SDS011;17871;31.584;74.450;2022-08-01T00:52:40;136.25;;;69.68;;
31238;SDS011;17871;31.584;74.450;2022-08-01T00:55:18;142.55;;;70.10;;
31238;SDS011;17871;31.584;74.450;2022-08-01T00:57:48;124.93;;;64.30;;
31238;SDS011;17871;31.584;74.450;2022-08-01T01:00:32;126.10;;;64.82;;
31238;SDS011;17871;31.584;74.450;2022-08-01T01:03:21;131.63;;;65.22;;
31238;SDS011;17871;31.584;74.450;2022-08-01T01:06:14;157.32;;;76.25;;
31238;SDS011;17871;31.584;74.450;2022-08-01T01:08:48;124.55;;;60.30;;
31238;SDS011;17871;31.584;74.450;2022-08-01T01:11:31;122.25;;;63.03;;
31238;SDS011;17871;31.584;74.450;2022-08-01T01:14:21;108.20;;;53.53;;
31238;SDS011;17871;31.584;74.450;2022-08-01T01:16:59;106.70;;;53.65;;
31238;SDS011;17871;31.584;74.450;2022-08-01T01:19:31;100.78;;;51.50;;
31238;SDS011;17871;31.584;74.450;2022-08-01T01:28:29;35.80;;;20.70;;
31238;SDS011;17871;31.584;74.450;2022-08-01T01:30:57;38.67;;;19.58;;
31238;SDS011;17871;31.584;74.450;2022-08-01T01:33:27;37.67;;;19.48;;
31238;SDS011;17871;31.584;74.450;2022-08-01T01:36:02;35.70;;;20.23;;
31238;SDS011;17871;31.584;74.450;2022-08-01T01:38:39;32.65;;;19.25;;
31238;SDS011;17871;31.584;74.450;2022-08-01T01:41:11;37.67;;;19.20;;
31238;SDS011;17871;31.584;74.450;2022-08-01T01:43:45;38.45;;;20.77;;
31238;SDS011;17871;31.584;74.450;2022-08-01T01:46:17;30.33;;;18.55;;
31238;SDS011;17871;31.584;74.450;2022-08-01T01:48:51;33.65;;;19.27;;
31238;SDS011;17871;31.584;74.450;2022-08-01T01:51:22;38.13;;;19.07;;
31238;SDS011;17871;31.584;74.450;2022-08-01T01:53:55;31.13;;;18.77;;
31238;SDS011;17871;31.584;74.450;2022-08-01T01:56:26;35.90;;;19.50;;
31238;SDS011;17871;31.584;74.450;2022-08-01T01:58:59;50.17;;;28.55;;
31238;SDS011;17871;31.584;74.450;2022-08-01T02:04:21;57.70;;;33.30;;
31238;SDS011;17871;31.584;74.450;2022-08-01T02:06:51;50.17;;;29.50;;
31238;SDS011;17871;31.584;74.450;2022-08-01T02:09:21;43.92;;;26.52;;
31238;SDS011;17871;31.584;74.450;2022-08-01T02:11:55;54.22;;;29.33;;
31238;SDS011;17871;31.584;74.450;2022-08-01T02:14:35;40.30;;;23.75;;
31238;SDS011;17871;31.584;74.450;2022-08-01T02:17:06;28.73;;;17.98;;
31238;SDS011;17871;31.584;74.450;2022-08-01T02:19:37;30.42;;;17.52;;
31238;SDS011;17871;31.584;74.450;2022-08-01T02:22:08;29.00;;;17.08;;
31238;SDS011;17871;31.584;74.450;2022-08-01T02:30:33;22.42;;;13.38;;
31238;SDS011;17871;31.584;74.450;2022-08-01T02:33:20;20.92;;;11.23;;
31238;SDS011;17871;31.584;74.450;2022-08-01T02:35:54;19.98;;;9.88;;
31238;SDS011;17871;31.584;74.450;2022-08-01T02:38:47;19.80;;;10.95;;
31238;SDS011;17871;31.584;74.450;2022-08-01T02:41:19;29.15;;;13.98;;
31238;SDS011;17871;31.584;74.450;2022-08-01T02:43:52;17.65;;;10.57;;
31238;SDS011;17871;31.584;74.450;2022-08-01T02:46:29;17.17;;;11.70;;
31238;SDS011;17871;31.584;74.450;2022-08-01T02:49:06;14.27;;;9.90;;
31238;SDS011;17871;31.584;74.450;2022-08-01T02:51:38;12.00;;;7.53;;
31238;SDS011;17871;31.584;74.450;2022-08-01T02:54:09;15.48;;;7.70;;
31238;SDS011;17871;31.584;74.450;2022-08-01T02:56:39;9.85;;;6.63;;
31238;SDS011;17871;31.584;74.450;2022-08-01T02:59:12;10.02;;;5.32;;
31238;SDS011;17871;31.584;74.450;2022-08-01T03:01:48;8.68;;;4.95;;
31238;SDS011;17871;31.584;74.450;2022-08-01T03:04:29;7.80;;;5.03;;
31238;SDS011;17871;31.584;74.450;2022-08-01T03:07:04;13.00;;;5.47;;
31238;SDS011;17871;31.584;74.450;2022-08-01T03:09:37;8.65;;;4.95;;
31238;SDS011;17871;31.584;74.450;2022-08-01T03:12:11;9.98;;;6.22;;
31238;SDS011;17871;31.584;74.450;2022-08-01T03:14:46;11.73;;;6.47;;
31238;SDS011;17871;31.584;74.450;2022-08-01T03:17:19;10.48;;;6.20;;
31238;SDS011;17871;31.584;74.450;2022-08-01T03:19:51;10.95;;;5.90;;
31238;SDS011;17871;31.584;74.450;2022-08-01T03:22:22;14.15;;;9.35;;
31238;SDS011;17871;31.584;74.450;2022-08-01T03:24:53;11.63;;;7.28;;
31238;SDS011;17871;31.584;74.450;2022-08-01T03:27:25;7.88;;;5.95;;
31238;SDS011;17871;31.584;74.450;2022-08-01T03:29:55;8.93;;;5.97;;
31238;SDS011;17871;31.584;74.450;2022-08-01T03:32:26;10.80;;;5.55;;
31238;SDS011;17871;31.584;74.450;2022-08-01T03:37:36;11.63;;;5.75;;
31238;SDS011;17871;31.584;74.450;2022-08-01T03:43:40;9.45;;;5.07;;
31238;SDS011;17871;31.584;74.450;2022-08-01T03:46:19;11.98;;;6.35;;
31238;SDS011;17871;31.584;74.450;2022-08-01T03:48:52;11.70;;;7.43;;
31238;SDS011;17871;31.584;74.450;2022-08-01T03:51:27;12.23;;;7.28;;
31238;SDS011;17871;31.584;74.450;2022-08-01T03:53:59;12.07;;;6.38;;
31238;SDS011;17871;31.584;74.450;2022-08-01T03:56:30;10.20;;;6.60;;
31238;SDS011;17871;31.584;74.450;2022-08-01T03:59:01;12.95;;;7.10;;
31238;SDS011;17871;31.584;74.450;2022-08-01T04:01:31;12.68;;;8.07;;
31238;SDS011;17871;31.584;74.450;2022-08-01T04:04:03;16.27;;;8.00;;
31238;SDS011;17871;31.584;74.450;2022-08-01T04:06:36;19.45;;;8.38;;
31238;SDS011;17871;31.584;74.450;2022-08-01T04:09:07;31.38;;;9.18;;
31238;SDS011;17871;31.584;74.450;2022-08-01T04:11:40;20.52;;;10.55;;
31238;SDS011;17871;31.584;74.450;2022-08-01T04:14:10;19.60;;;11.02;;
31238;SDS011;17871;31.584;74.450;2022-08-01T04:16:39;25.08;;;10.93;;
31238;SDS011;17871;31.584;74.450;2022-08-01T04:19:09;23.38;;;11.98;;
31238;SDS011;17871;31.584;74.450;2022-08-01T04:21:38;22.08;;;11.15;;
31238;SDS011;17871;31.584;74.450;2022-08-01T04:24:14;24.52;;;11.00;;
31238;SDS011;17871;31.584;74.450;2022-08-01T04:26:48;32.10;;;10.25;;
31238;SDS011;17871;31.584;74.450;2022-08-01T04:29:20;16.10;;;9.30;;
31238;SDS011;17871;31.584;74.450;2022-08-01T04:31:52;21.52;;;9.82;;
31238;SDS011;17871;31.584;74.450;2022-08-01T04:34:25;29.35;;;11.27;;
31238;SDS011;17871;31.584;74.450;2022-08-01T04:36:56;19.73;;;9.52;;
31238;SDS011;17871;31.584;74.450;2022-08-01T04:39:29;22.20;;;10.95;;
31238;SDS011;17871;31.584;74.450;2022-08-01T04:42:17;22.65;;;9.18;;
31238;SDS011;17871;31.584;74.450;2022-08-01T04:44:57;28.20;;;12.10;;
31238;SDS011;17871;31.584;74.450;2022-08-01T04:47:26;29.05;;;13.98;;
31238;SDS011;17871;31.584;74.450;2022-08-01T04:49:56;31.10;;;13.63;;
31238;SDS011;17871;31.584;74.450;2022-08-01T04:52:33;25.73;;;11.00;;
31238;SDS011;17871;31.584;74.450;2022-08-01T04:55:03;19.83;;;9.95;;
31238;SDS011;17871;31.584;74.450;2022-08-01T04:57:37;19.30;;;10.88;;
31238;SDS011;17871;31.584;74.450;2022-08-01T05:00:13;22.20;;;10.73;;
31238;SDS011;17871;31.584;74.450;2022-08-01T05:02:45;18.95;;;9.93;;
31238;SDS011;17871;31.584;74.450;2022-08-01T05:05:14;15.10;;;9.43;;
31238;SDS011;17871;31.584;74.450;2022-08-01T05:07:43;16.50;;;9.52;;
31238;SDS011;17871;31.584;74.450;2022-08-01T05:10:13;18.38;;;11.70;;
31238;SDS011;17871;31.584;74.450;2022-08-01T05:12:42;23.17;;;11.40;;
31238;SDS011;17871;31.584;74.450;2022-08-01T05:15:11;24.30;;;12.57;;
31238;SDS011;17871;31.584;74.450;2022-08-01T05:17:42;23.67;;;13.60;;
31238;SDS011;17871;31.584;74.450;2022-08-01T05:20:11;25.15;;;14.88;;
31238;SDS011;17871;31.584;74.450;2022-08-01T05:22:41;25.27;;;13.43;;
31238;SDS011;17871;31.584;74.450;2022-08-01T05:25:10;25.23;;;13.60;;
31238;SDS011;17871;31.584;74.450;2022-08-01T05:27:46;28.38;;;12.90;;
31238;SDS011;17871;31.584;74.450;2022-08-01T05:30:17;29.98;;;13.57;;
31238;SDS011;17871;31.584;74.450;2022-08-01T05:32:46;28.10;;;14.70;;
31238;SDS011;17871;31.584;74.450;2022-08-01T05:35:15;30.80;;;15.82;;
31238;SDS011;17871;31.584;74.450;2022-08-01T05:37:44;30.58;;;15.90;;
31238;SDS011;17871;31.584;74.450;2022-08-01T05:40:13;25.83;;;14.68;;
31238;SDS011;17871;31.584;74.450;2022-08-01T05:42:43;29.60;;;14.95;;
31238;SDS011;17871;31.584;74.450;2022-08-01T05:45:12;31.20;;;16.38;;
31238;SDS011;17871;31.584;74.450;2022-08-01T05:47:41;25.08;;;15.35;;
31238;SDS011;17871;31.584;74.450;2022-08-01T05:50:10;25.30;;;15.07;;
31238;SDS011;17871;31.584;74.450;2022-08-01T05:52:40;27.23;;;15.73;;
31238;SDS011;17871;31.584;74.450;2022-08-01T05:55:09;36.22;;;17.55;;
31238;SDS011;17871;31.584;74.450;2022-08-01T05:57:39;26.00;;;15.57;;
31238;SDS011;17871;31.584;74.450;2022-08-01T06:00:08;28.95;;;16.33;;
31238;SDS011;17871;31.584;74.450;2022-08-01T06:02:44;29.33;;;16.98;;
31238;SDS011;17871;31.584;74.450;2022-08-01T06:05:13;28.40;;;16.40;;
31238;SDS011;17871;31.584;74.450;2022-08-01T06:07:43;32.00;;;17.08;;
31238;SDS011;17871;31.584;74.450;2022-08-01T06:10:12;27.23;;;16.95;;
31238;SDS011;17871;31.584;74.450;2022-08-01T06:12:41;32.08;;;16.75;;
31238;SDS011;17871;31.584;74.450;2022-08-01T06:15:11;27.45;;;17.08;;
31238;SDS011;17871;31.584;74.450;2022-08-01T06:17:40;34.13;;;17.05;;
31238;SDS011;17871;31.584;74.450;2022-08-01T06:20:12;37.15;;;19.25;;
31238;SDS011;17871;31.584;74.450;2022-08-01T06:22:41;35.60;;;17.75;;
31238;SDS011;17871;31.584;74.450;2022-08-01T06:25:18;29.88;;;17.35;;
31238;SDS011;17871;31.584;74.450;2022-08-01T06:27:48;33.95;;;18.63;;
31238;SDS011;17871;31.584;74.450;2022-08-01T06:30:18;33.50;;;18.58;;
31238;SDS011;17871;31.584;74.450;2022-08-01T06:32:48;31.92;;;18.23;;
31238;SDS011;17871;31.584;74.450;2022-08-01T06:35:18;28.80;;;17.15;;
31238;SDS011;17871;31.584;74.450;2022-08-01T06:37:47;29.35;;;16.98;;
31238;SDS011;17871;31.584;74.450;2022-08-01T06:40:17;36.13;;;19.30;;
31238;SDS011;17871;31.584;74.450;2022-08-01T06:42:46;33.92;;;19.98;;
31238;SDS011;17871;31.584;74.450;2022-08-01T06:45:15;33.60;;;19.73;;
31238;SDS011;17871;31.584;74.450;2022-08-01T06:47:45;32.75;;;18.38;;
31238;SDS011;17871;31.584;74.450;2022-08-01T06:50:17;49.60;;;23.90;;
31238;SDS011;17871;31.584;74.450;2022-08-01T06:52:46;39.25;;;23.30;;
31238;SDS011;17871;31.584;74.450;2022-08-01T06:55:16;42.95;;;23.73;;
31238;SDS011;17871;31.584;74.450;2022-08-01T06:57:46;41.22;;;25.38;;
31238;SDS011;17871;31.584;74.450;2022-08-01T07:00:20;46.78;;;28.88;;
31238;SDS011;17871;31.584;74.450;2022-08-01T07:02:51;60.53;;;32.17;;
31238;SDS011;17871;31.584;74.450;2022-08-01T07:05:26;63.67;;;37.88;;
31238;SDS011;17871;31.584;74.450;2022-08-01T07:07:59;67.07;;;40.22;;
31238;SDS011;17871;31.584;74.450;2022-08-01T07:10:28;74.70;;;39.70;;
31238;SDS011;17871;31.584;74.450;2022-08-01T07:12:58;67.32;;;37.72;;
31238;SDS011;17871;31.584;74.450;2022-08-01T07:21:05;67.20;;;39.35;;
31238;SDS011;17871;31.584;74.450;2022-08-01T07:23:55;70.65;;;40.22;;
31238;SDS011;17871;31.584;74.450;2022-08-01T07:26:25;67.43;;;41.35;;
31238;SDS011;17871;31.584;74.450;2022-08-01T07:28:55;70.63;;;40.67;;
31238;SDS011;17871;31.584;74.450;2022-08-01T07:31:25;66.75;;;40.22;;
31238;SDS011;17871;31.584;74.450;2022-08-01T07:33:58;71.72;;;41.92;;
31238;SDS011;17871;31.584;74.450;2022-08-01T07:36:27;81.68;;;44.05;;
31238;SDS011;17871;31.584;74.450;2022-08-01T07:38:56;84.28;;;47.80;;
31238;SDS011;17871;31.584;74.450;2022-08-01T07:41:27;76.35;;;42.70;;
31238;SDS011;17871;31.584;74.450;2022-08-01T07:44:17;60.90;;;34.70;;
31238;SDS011;17871;31.584;74.450;2022-08-01T07:46:47;57.97;;;34.40;;
31238;SDS011;17871;31.584;74.450;2022-08-01T07:49:16;58.30;;;35.78;;
31238;SDS011;17871;31.584;74.450;2022-08-01T07:51:45;62.90;;;35.00;;
31238;SDS011;17871;31.584;74.450;2022-08-01T07:54:31;63.75;;;36.00;;
31238;SDS011;17871;31.584;74.450;2022-08-01T07:57:01;55.58;;;33.47;;
31238;SDS011;17871;31.584;74.450;2022-08-01T07:59:31;54.05;;;33.85;;
31238;SDS011;17871;31.584;74.450;2022-08-01T08:02:01;61.00;;;35.53;;
31238;SDS011;17871;31.584;74.450;2022-08-01T08:04:31;62.10;;;37.28;;
31238;SDS011;17871;31.584;74.450;2022-08-01T08:07:01;60.03;;;36.65;;
31238;SDS011;17871;31.584;74.450;2022-08-01T08:09:30;56.88;;;36.03;;
31238;SDS011;17871;31.584;74.450;2022-08-01T08:12:04;71.75;;;39.83;;
31238;SDS011;17871;31.584;74.450;2022-08-01T08:14:35;67.97;;;42.05;;
31238;SDS011;17871;31.584;74.450;2022-08-01T08:17:05;68.47;;;39.13;;
31238;SDS011;17871;31.584;74.450;2022-08-01T08:19:34;70.25;;;37.75;;
31238;SDS011;17871;31.584;74.450;2022-08-01T08:22:07;56.22;;;34.97;;
31238;SDS011;17871;31.584;74.450;2022-08-01T08:24:37;56.42;;;34.88;;
31238;SDS011;17871;31.584;74.450;2022-08-01T08:27:13;60.47;;;34.35;;
31238;SDS011;17871;31.584;74.450;2022-08-01T08:29:45;65.28;;;33.42;;
31238;SDS011;17871;31.584;74.450;2022-08-01T08:32:14;65.60;;;36.25;;
31238;SDS011;17871;31.584;74.450;2022-08-01T08:34:44;52.95;;;33.42;;
31238;SDS011;17871;31.584;74.450;2022-08-01T08:37:16;54.67;;;33.10;;
31238;SDS011;17871;31.584;74.450;2022-08-01T08:39:46;53.60;;;30.83;;
31238;SDS011;17871;31.584;74.450;2022-08-01T08:42:15;57.28;;;27.88;;
31238;SDS011;17871;31.584;74.450;2022-08-01T08:44:45;40.90;;;26.40;;
31238;SDS011;17871;31.584;74.450;2022-08-01T08:47:14;47.08;;;27.48;;
31238;SDS011;17871;31.584;74.450;2022-08-01T08:49:47;47.35;;;28.33;;
31238;SDS011;17871;31.584;74.450;2022-08-01T08:52:21;46.05;;;27.75;;
31238;SDS011;17871;31.584;74.450;2022-08-01T08:54:51;45.17;;;28.02;;
31238;SDS011;17871;31.584;74.450;2022-08-01T08:57:22;44.95;;;26.90;;
31238;SDS011;17871;31.584;74.450;2022-08-01T08:59:51;53.83;;;32.65;;
31238;SDS011;17871;31.584;74.450;2022-08-01T09:02:22;63.15;;;33.10;;
31238;SDS011;17871;31.584;74.450;2022-08-01T09:04:53;63.08;;;35.53;;
31238;SDS011;17871;31.584;74.450;2022-08-01T09:07:24;64.95;;;40.22;;
31238;SDS011;17871;31.584;74.450;2022-08-01T09:09:54;67.43;;;41.80;;
31238;SDS011;17871;31.584;74.450;2022-08-01T09:12:23;69.38;;;43.50;;
31238;SDS011;17871;31.584;74.450;2022-08-01T09:14:53;70.35;;;42.28;;
31238;SDS011;17871;31.584;74.450;2022-08-01T09:17:22;71.40;;;44.25;;
31238;SDS011;17871;31.584;74.450;2022-08-01T09:19:53;75.22;;;42.20;;
31238;SDS011;17871;31.584;74.450;2022-08-01T09:22:25;63.58;;;40.75;;
31238;SDS011;17871;31.584;74.450;2022-08-01T09:27:27;60.03;;;37.63;;
31238;SDS011;17871;31.584;74.450;2022-08-01T09:30:07;55.85;;;33.22;;
31238;SDS011;17871;31.584;74.450;2022-08-01T09:33:07;50.15;;;28.63;;
31238;SDS011;17871;31.584;74.450;2022-08-01T09:35:54;44.35;;;27.60;;
31238;SDS011;17871;31.584;74.450;2022-08-01T09:38:25;44.20;;;26.35;;
31238;SDS011;17871;31.584;74.450;2022-08-01T09:40:57;41.25;;;25.13;;
31238;SDS011;17871;31.584;74.450;2022-08-01T09:43:30;42.53;;;24.77;;
31238;SDS011;17871;31.584;74.450;2022-08-01T09:46:04;49.03;;;28.30;;
31238;SDS011;17871;31.584;74.450;2022-08-01T09:51:37;48.25;;;28.35;;
31238;SDS011;17871;31.584;74.450;2022-08-01T09:54:30;46.20;;;26.27;;
31238;SDS011;17871;31.584;74.450;2022-08-01T09:57:10;47.42;;;29.63;;
31238;SDS011;17871;31.584;74.450;2022-08-01T09:59:41;50.55;;;29.65;;
31238;SDS011;17871;31.584;74.450;2022-08-01T10:02:35;54.20;;;30.27;;
31238;SDS011;17871;31.584;74.450;2022-08-01T10:05:07;49.63;;;31.40;;
31238;SDS011;17871;31.584;74.450;2022-08-01T10:08:02;42.77;;;27.67;;
31238;SDS011;17871;31.584;74.450;2022-08-01T10:10:34;47.72;;;30.30;;
31238;SDS011;17871;31.584;74.450;2022-08-01T10:13:04;42.63;;;26.77;;
31238;SDS011;17871;31.584;74.450;2022-08-01T10:15:36;39.53;;;22.55;;
31238;SDS011;17871;31.584;74.450;2022-08-01T10:18:07;33.47;;;22.20;;
31238;SDS011;17871;31.584;74.450;2022-08-01T10:20:52;38.67;;;23.10;;
31238;SDS011;17871;31.584;74.450;2022-08-01T10:26:07;30.90;;;18.42;;
31238;SDS011;17871;31.584;74.450;2022-08-01T10:28:39;25.38;;;17.65;;
31238;SDS011;17871;31.584;74.450;2022-08-01T10:31:13;32.15;;;18.63;;
31238;SDS011;17871;31.584;74.450;2022-08-01T10:33:57;30.70;;;18.55;;
31238;SDS011;17871;31.584;74.450;2022-08-01T10:36:26;29.80;;;18.63;;
31238;SDS011;17871;31.584;74.450;2022-08-01T10:38:58;27.45;;;15.90;;
31238;SDS011;17871;31.584;74.450;2022-08-01T10:41:27;23.15;;;14.95;;
31238;SDS011;17871;31.584;74.450;2022-08-01T10:43:58;23.77;;;14.43;;
31238;SDS011;17871;31.584;74.450;2022-08-01T10:46:30;22.65;;;13.90;;
31238;SDS011;17871;31.584;74.450;2022-08-01T10:49:07;27.83;;;14.40;;
31238;SDS011;17871;31.584;74.450;2022-08-01T10:51:41;25.67;;;14.60;;
31238;SDS011;17871;31.584;74.450;2022-08-01T10:54:23;20.63;;;13.90;;
31238;SDS011;17871;31.584;74.450;2022-08-01T10:56:54;23.40;;;14.18;;
31238;SDS011;17871;31.584;74.450;2022-08-01T10:59:29;22.10;;;12.82;;
31238;SDS011;17871;31.584;74.450;2022-08-01T11:02:28;18.20;;;11.63;;
31238;SDS011;17871;31.584;74.450;2022-08-01T11:05:33;21.45;;;11.60;;
31238;SDS011;17871;31.584;74.450;2022-08-01T11:08:21;23.67;;;13.20;;
31238;SDS011;17871;31.584;74.450;2022-08-01T11:16:41;22.50;;;10.68;;
31238;SDS011;17871;31.584;74.450;2022-08-01T11:19:12;19.35;;;9.90;;
31238;SDS011;17871;31.584;74.450;2022-08-01T11:27:24;17.67;;;11.95;;
31238;SDS011;17871;31.584;74.450;2022-08-01T11:35:36;18.10;;;10.63;;
31238;SDS011;17871;31.584;74.450;2022-08-01T11:38:23;20.00;;;10.87;;
31238;SDS011;17871;31.584;74.450;2022-08-01T11:41:10;16.45;;;10.48;;
31238;SDS011;17871;31.584;74.450;2022-08-01T11:52:07;20.45;;;10.25;;
31238;SDS011;17871;31.584;74.450;2022-08-01T11:54:46;15.40;;;11.13;;
31238;SDS011;17871;31.584;74.450;2022-08-01T12:00:14;16.73;;;11.77;;
31238;SDS011;17871;31.584;74.450;2022-08-01T12:02:46;17.13;;;11.65;;
31238;SDS011;17871;31.584;74.450;2022-08-01T12:05:26;22.25;;;12.90;;
31238;SDS011;17871;31.584;74.450;2022-08-01T12:08:00;20.33;;;13.18;;
31238;SDS011;17871;31.584;74.450;2022-08-01T12:10:33;18.65;;;12.15;;
31238;SDS011;17871;31.584;74.450;2022-08-01T12:13:13;18.90;;;12.75;;
31238;SDS011;17871;31.584;74.450;2022-08-01T12:15:43;20.67;;;12.88;;
31238;SDS011;17871;31.584;74.450;2022-08-01T12:18:14;19.48;;;12.52;;
31238;SDS011;17871;31.584;74.450;2022-08-01T12:20:45;17.45;;;11.95;;
31238;SDS011;17871;31.584;74.450;2022-08-01T12:23:23;20.60;;;12.45;;
31238;SDS011;17871;31.584;74.450;2022-08-01T12:25:52;19.83;;;11.32;;
31238;SDS011;17871;31.584;74.450;2022-08-01T12:28:22;22.13;;;12.45;;
31238;SDS011;17871;31.584;74.450;2022-08-01T12:30:53;20.90;;;11.88;;
31238;SDS011;17871;31.584;74.450;2022-08-01T12:33:22;17.77;;;11.05;;
31238;SDS011;17871;31.584;74.450;2022-08-01T12:35:52;17.83;;;11.05;;
31238;SDS011;17871;31.584;74.450;2022-08-01T12:38:21;18.88;;;11.90;;
31238;SDS011;17871;31.584;74.450;2022-08-01T12:40:52;22.63;;;11.73;;
31238;SDS011;17871;31.584;74.450;2022-08-01T12:43:23;18.17;;;11.48;;
31238;SDS011;17871;31.584;74.450;2022-08-01T12:45:56;17.52;;;11.45;;
31238;SDS011;17871;31.584;74.450;2022-08-01T12:48:27;16.35;;;11.07;;
31238;SDS011;17871;31.584;74.450;2022-08-01T12:51:00;17.27;;;9.57;;
31238;SDS011;17871;31.584;74.450;2022-08-01T12:53:34;15.43;;;9.95;;
31238;SDS011;17871;31.584;74.450;2022-08-01T12:56:08;16.70;;;10.20;;
31238;SDS011;17871;31.584;74.450;2022-08-01T12:58:41;14.60;;;9.02;;
31238;SDS011;17871;31.584;74.450;2022-08-01T13:01:10;17.60;;;9.55;;
31238;SDS011;17871;31.584;74.450;2022-08-01T13:03:41;12.85;;;8.90;;
31238;SDS011;17871;31.584;74.450;2022-08-01T13:06:29;17.23;;;8.90;;
31238;SDS011;17871;31.584;74.450;2022-08-01T13:09:07;20.17;;;9.73;;
31238;SDS011;17871;31.584;74.450;2022-08-01T13:11:40;17.48;;;11.43;;
31238;SDS011;17871;31.584;74.450;2022-08-01T13:14:29;20.15;;;9.77;;
31238;SDS011;17871;31.584;74.450;2022-08-01T13:16:59;15.57;;;10.52;;
31238;SDS011;17871;31.584;74.450;2022-08-01T13:19:44;21.10;;;9.82;;
31238;SDS011;17871;31.584;74.450;2022-08-01T13:22:15;16.63;;;8.40;;
31238;SDS011;17871;31.584;74.450;2022-08-01T13:24:44;16.67;;;8.38;;
31238;SDS011;17871;31.584;74.450;2022-08-01T13:27:20;16.67;;;10.07;;
31238;SDS011;17871;31.584;74.450;2022-08-01T13:29:52;16.63;;;8.65;;
31238;SDS011;17871;31.584;74.450;2022-08-01T13:32:21;14.75;;;8.02;;
31238;SDS011;17871;31.584;74.450;2022-08-01T13:35:08;25.80;;;11.25;;
31238;SDS011;17871;31.584;74.450;2022-08-01T13:37:39;25.13;;;12.05;;
31238;SDS011;17871;31.584;74.450;2022-08-01T13:40:10;17.10;;;10.95;;
31238;SDS011;17871;31.584;74.450;2022-08-01T13:42:40;19.38;;;10.52;;
31238;SDS011;17871;31.584;74.450;2022-08-01T13:45:09;14.13;;;9.00;;
31238;SDS011;17871;31.584;74.450;2022-08-01T13:47:44;24.83;;;11.30;;
31238;SDS011;17871;31.584;74.450;2022-08-01T13:50:33;22.38;;;11.80;;
31238;SDS011;17871;31.584;74.450;2022-08-01T13:53:03;21.58;;;11.82;;
31238;SDS011;17871;31.584;74.450;2022-08-01T13:55:32;24.08;;;13.13;;
31238;SDS011;17871;31.584;74.450;2022-08-01T13:58:02;26.23;;;14.27;;
31238;SDS011;17871;31.584;74.450;2022-08-01T14:00:33;32.95;;;13.68;;
31238;SDS011;17871;31.584;74.450;2022-08-01T14:03:03;26.50;;;13.13;;
31238;SDS011;17871;31.584;74.450;2022-08-01T14:05:32;19.55;;;11.98;;
31238;SDS011;17871;31.584;74.450;2022-08-01T14:08:01;18.67;;;11.50;;
31238;SDS011;17871;31.584;74.450;2022-08-01T14:10:32;19.90;;;11.75;;
31238;SDS011;17871;31.584;74.450;2022-08-01T14:13:01;19.92;;;11.25;;
31238;SDS011;17871;31.584;74.450;2022-08-01T14:15:32;23.17;;;12.48;;
31238;SDS011;17871;31.584;74.450;2022-08-01T14:18:06;24.25;;;13.63;;
31238;SDS011;17871;31.584;74.450;2022-08-01T14:20:37;30.95;;;15.45;;
31238;SDS011;17871;31.584;74.450;2022-08-01T14:23:08;25.67;;;15.30;;
31238;SDS011;17871;31.584;74.450;2022-08-01T14:25:37;32.95;;;19.25;;
31238;SDS011;17871;31.584;74.450;2022-08-01T14:28:28;41.53;;;19.58;;
31238;SDS011;17871;31.584;74.450;2022-08-01T14:30:58;36.42;;;17.92;;
31238;SDS011;17871;31.584;74.450;2022-08-01T14:33:28;32.03;;;16.48;;
31238;SDS011;17871;31.584;74.450;2022-08-01T14:36:00;29.25;;;15.80;;
31238;SDS011;17871;31.584;74.450;2022-08-01T14:38:50;31.40;;;16.95;;
31238;SDS011;17871;31.584;74.450;2022-08-01T14:41:19;32.53;;;17.92;;
31238;SDS011;17871;31.584;74.450;2022-08-01T14:43:48;35.25;;;18.27;;
31238;SDS011;17871;31.584;74.450;2022-08-01T14:46:17;36.83;;;17.85;;
31238;SDS011;17871;31.584;74.450;2022-08-01T14:48:47;41.10;;;20.88;;
31238;SDS011;17871;31.584;74.450;2022-08-01T14:51:15;40.70;;;20.45;;
31238;SDS011;17871;31.584;74.450;2022-08-01T14:53:45;48.65;;;24.77;;
31238;SDS011;17871;31.584;74.450;2022-08-01T14:56:19;57.28;;;23.27;;
31238;SDS011;17871;31.584;74.450;2022-08-01T14:58:48;46.53;;;23.45;;
31238;SDS011;17871;31.584;74.450;2022-08-01T15:01:17;50.90;;;23.38;;
31238;SDS011;17871;31.584;74.450;2022-08-01T15:03:47;46.00;;;26.27;;
31238;SDS011;17871;31.584;74.450;2022-08-01T15:06:18;46.80;;;25.67;;
31238;SDS011;17871;31.584;74.450;2022-08-01T15:08:47;44.38;;;26.50;;
31238;SDS011;17871;31.584;74.450;2022-08-01T15:11:16;46.15;;;24.23;;
31238;SDS011;17871;31.584;74.450;2022-08-01T15:13:45;53.95;;;25.55;;
31238;SDS011;17871;31.584;74.450;2022-08-01T15:16:34;45.63;;;24.88;;
31238;SDS011;17871;31.584;74.450;2022-08-01T15:19:04;47.75;;;23.90;;
31238;SDS011;17871;31.584;74.450;2022-08-01T15:21:33;44.55;;;23.80;;
31238;SDS011;17871;31.584;74.450;2022-08-01T15:24:09;42.47;;;23.67;;
31238;SDS011;17871;31.584;74.450;2022-08-01T15:26:39;43.08;;;23.00;;
31238;SDS011;17871;31.584;74.450;2022-08-01T15:29:08;39.25;;;21.30;;
31238;SDS011;17871;31.584;74.450;2022-08-01T15:31:37;43.08;;;22.60;;
31238;SDS011;17871;31.584;74.450;2022-08-01T15:34:07;39.80;;;21.90;;
31238;SDS011;17871;31.584;74.450;2022-08-01T15:36:36;33.97;;;21.45;;
31238;SDS011;17871;31.584;74.450;2022-08-01T15:39:10;43.33;;;20.52;;
31238;SDS011;17871;31.584;74.450;2022-08-01T15:41:39;39.78;;;20.60;;
31238;SDS011;17871;31.584;74.450;2022-08-01T15:44:08;35.95;;;19.48;;
31238;SDS011;17871;31.584;74.450;2022-08-01T15:46:38;37.85;;;21.27;;